Time,TemperatureF,DewpointF,PressureIn,WindDirection,WindDirectionDegrees,WindSpeedMPH,WindSpeedGustMPH,Humidity,HourlyPrecipIn,Conditions,Clouds,dailyrainin,SoftwareType,DateUTC
2013-04-19 00:03:00,50.0,26.0,-100.00,SSE,160,3.0,7.0,39,0.00,,,-99.99,,2013-04-19 04:03:00,
2013-04-19 00:13:00,50.0,27.0,-100.00,South,180,4.0,7.0,41,0.00,,,-99.99,,2013-04-19 04:13:00,
2013-04-19 00:23:00,50.0,28.0,-100.00,South,170,2.0,7.0,41,0.00,,,-99.99,,2013-04-19 04:23:00,
2013-04-19 00:33:00,50.0,29.0,-100.00,SE,135,2.0,5.0,44,0.00,,,-99.99,,2013-04-19 04:33:00,
2013-04-19 00:43:00,50.0,29.0,-100.00,SE,145,2.0,5.0,45,0.00,,,-99.99,,2013-04-19 04:43:00,
2013-04-19 00:52:00,49.0,31.0,-100.00,SSE,150,2.0,7.0,48,0.00,,,-99.99,,2013-04-19 04:52:00,
2013-04-19 01:03:00,49.0,32.0,-100.00,SE,135,2.0,4.0,50,0.00,,,-99.99,,2013-04-19 05:03:00,
2013-04-19 01:12:00,49.0,33.0,-100.00,SSE,160,2.0,7.0,52,0.00,,,-99.99,,2013-04-19 05:12:00,
2013-04-19 01:22:00,49.0,34.0,-100.00,SSE,155,2.0,6.0,55,0.00,,,-99.99,,2013-04-19 05:22:00,
2013-04-19 01:32:00,49.0,35.0,-100.00,SE,140,1.0,4.0,58,0.00,,,-99.99,,2013-04-19 05:32:00,
2013-04-19 01:42:00,49.0,36.0,-100.00,SSE,160,2.0,4.0,60,0.00,,,-99.99,,2013-04-19 05:42:00,
2013-04-19 01:52:00,49.0,37.0,-100.00,SSE,150,3.0,5.0,64,0.00,,,-99.99,,2013-04-19 05:52:00,
2013-04-19 02:02:00,49.0,38.0,-100.00,SSE,160,3.0,5.0,65,0.00,,,-99.99,,2013-04-19 06:02:00,
2013-04-19 02:12:00,49.0,38.0,-100.00,ESE,120,2.0,5.0,67,0.00,,,-99.99,,2013-04-19 06:12:00,
2013-04-19 02:22:00,49.0,39.0,-100.00,SE,125,1.0,3.0,69,0.00,,,-99.99,,2013-04-19 06:22:00,
2013-04-19 02:32:00,49.0,40.0,-100.00,South,170,3.0,6.0,71,0.00,,,-99.99,,2013-04-19 06:32:00,
2013-04-19 02:42:00,49.0,40.0,-100.00,NE,45,1.0,6.0,72,0.00,,,-99.99,,2013-04-19 06:42:00,
2013-04-19 02:53:00,49.0,40.0,-100.00,SSE,150,2.0,6.0,72,0.00,,,-99.99,,2013-04-19 06:53:00,
2013-04-19 03:02:00,49.0,40.0,-100.00,SSE,160,2.0,6.0,73,0.00,,,-99.99,,2013-04-19 07:02:00,
2013-04-19 03:12:00,49.0,41.0,-100.00,SE,140,1.0,6.0,73,0.00,,,-99.99,,2013-04-19 07:12:00,
2013-04-19 03:21:00,49.0,41.0,-100.00,North,5,1.0,2.0,74,0.00,,,-99.99,,2013-04-19 07:21:00,
2013-04-19 03:32:00,49.0,41.0,-100.00,NE,55,1.0,2.0,74,0.00,,,-99.99,,2013-04-19 07:32:00,
2013-04-19 03:42:00,49.0,41.0,-100.00,ESE,110,1.0,3.0,74,0.00,,,-99.99,,2013-04-19 07:42:00,
2013-04-19 03:52:00,48.0,41.0,-100.00,SE,145,2.0,5.0,75,0.00,,,-99.99,,2013-04-19 07:52:00,
2013-04-19 04:02:00,48.0,41.0,-100.00,East,80,1.0,4.0,75,0.00,,,-99.99,,2013-04-19 08:02:00,
2013-04-19 04:12:00,48.0,41.0,-100.00,SE,140,2.0,4.0,75,0.00,,,-99.99,,2013-04-19 08:12:00,
2013-04-19 04:22:00,48.0,41.0,-100.00,SE,145,2.0,4.0,76,0.00,,,-99.99,,2013-04-19 08:22:00,
2013-04-19 04:33:00,48.0,41.0,-100.00,SSE,160,2.0,4.0,77,0.00,,,-99.99,,2013-04-19 08:33:00,
2013-04-19 04:42:00,48.0,42.0,-100.00,SSE,150,2.0,4.0,77,0.00,,,-99.99,,2013-04-19 08:42:00,
2013-04-19 04:52:00,48.0,42.0,-100.00,SSE,155,2.0,5.0,79,0.00,,,-99.99,,2013-04-19 08:52:00,
2013-04-19 05:01:00,48.0,42.0,-100.00,SE,145,3.0,5.0,80,0.00,,,-99.99,,2013-04-19 09:01:00,
2013-04-19 05:21:00,48.0,43.0,-100.00,SSE,160,3.0,5.0,81,0.00,,,-99.99,,2013-04-19 09:21:00,
2013-04-19 05:32:00,48.0,43.0,-100.00,ENE,70,1.0,4.0,82,0.00,,,-99.99,,2013-04-19 09:32:00,
2013-04-19 05:43:00,49.0,44.0,-100.00,SE,135,2.0,6.0,83,0.00,,,-99.99,,2013-04-19 09:43:00,
2013-04-19 05:52:00,49.0,44.0,-100.00,SE,125,0.0,3.0,84,0.00,,,-99.99,,2013-04-19 09:52:00,
2013-04-19 06:02:00,49.0,45.0,-100.00,SE,130,0.0,2.0,84,0.00,,,-99.99,,2013-04-19 10:02:00,
2013-04-19 06:13:00,49.0,45.0,-100.00,ESE,105,1.0,1.0,85,0.00,,,-99.99,,2013-04-19 10:13:00,
2013-04-19 06:23:00,49.0,45.0,-100.00,South,180,2.0,5.0,85,0.00,,,-99.99,,2013-04-19 10:23:00,
2013-04-19 06:33:00,50.0,46.0,-100.00,SE,145,4.0,6.0,87,0.00,,,-99.99,,2013-04-19 10:33:00,
2013-04-19 06:42:00,50.0,46.0,-100.00,SSE,155,3.0,6.0,87,0.00,,,-99.99,,2013-04-19 10:42:00,
2013-04-19 06:52:00,50.0,46.0,-100.00,SE,140,3.0,6.0,87,0.00,,,-99.99,,2013-04-19 10:52:00,
2013-04-19 07:03:00,50.0,46.0,-100.00,SE,145,4.0,7.0,88,0.00,,,-99.99,,2013-04-19 11:03:00,
2013-04-19 07:11:00,50.0,47.0,-100.00,SSE,150,2.0,5.0,88,0.00,,,-99.99,,2013-04-19 11:11:00,
2013-04-19 07:22:00,50.0,47.0,-100.00,South,170,3.0,6.0,88,0.00,,,-99.99,,2013-04-19 11:22:00,
2013-04-19 07:32:00,50.0,47.0,-100.00,SSE,160,3.0,6.0,88,0.00,,,-99.99,,2013-04-19 11:32:00,
2013-04-19 07:42:00,51.0,47.0,-100.00,SE,145,3.0,6.0,88,0.00,,,-99.99,,2013-04-19 11:42:00,
2013-04-19 07:52:00,51.0,48.0,-100.00,SE,135,3.0,6.0,88,0.00,,,-99.99,,2013-04-19 11:52:00,
2013-04-19 08:03:00,52.0,48.0,-100.00,SSE,160,2.0,4.0,88,0.00,,,-99.99,,2013-04-19 12:03:00,
2013-04-19 08:12:00,52.0,49.0,-100.00,SE,140,2.0,6.0,87,0.00,,,-99.99,,2013-04-19 12:12:00,
2013-04-19 08:22:00,53.0,49.0,-100.00,SSE,155,1.0,6.0,87,0.00,,,-99.99,,2013-04-19 12:22:00,
2013-04-19 08:32:00,53.0,50.0,-100.00,ESE,120,1.0,3.0,87,0.00,,,-99.99,,2013-04-19 12:32:00,
2013-04-19 08:42:00,54.0,50.0,-100.00,South,185,2.0,6.0,86,0.00,,,-99.99,,2013-04-19 12:42:00,
2013-04-19 08:52:00,55.0,50.0,-100.00,NW,320,1.0,4.0,85,0.00,,,-99.99,,2013-04-19 12:52:00,
2013-04-19 09:01:00,55.0,50.0,-100.00,ESE,115,1.0,6.0,85,0.00,,,-99.99,,2013-04-19 13:01:00,
2013-04-19 09:11:00,55.0,51.0,-100.00,South,175,2.0,5.0,85,0.00,,,-99.99,,2013-04-19 13:11:00,
2013-04-19 09:21:00,55.0,51.0,-100.00,SSE,155,2.0,4.0,86,0.00,,,-99.99,,2013-04-19 13:21:00,
2013-04-19 09:32:00,55.0,51.0,-100.00,SE,135,2.0,4.0,85,0.00,,,-99.99,,2013-04-19 13:32:00,
2013-04-19 09:42:00,56.0,51.0,-100.00,SSE,165,3.0,6.0,85,0.00,,,-99.99,,2013-04-19 13:42:00,
2013-04-19 09:52:00,56.0,51.0,-100.00,SE,140,3.0,6.0,84,0.00,,,-99.99,,2013-04-19 13:52:00,
2013-04-19 10:02:00,56.0,52.0,-100.00,SSE,160,3.0,6.0,84,0.00,,,-99.99,,2013-04-19 14:02:00,
2013-04-19 10:11:00,57.0,52.0,-100.00,SE,145,4.0,7.0,82,0.00,,,-99.99,,2013-04-19 14:11:00,
2013-04-19 10:22:00,58.0,53.0,-100.00,South,175,2.0,6.0,81,0.00,,,-99.99,,2013-04-19 14:22:00,
2013-04-19 10:32:00,58.0,53.0,-100.00,South,180,4.0,7.0,80,0.00,,,-99.99,,2013-04-19 14:32:00,
2013-04-19 10:42:00,59.0,53.0,-100.00,SE,145,2.0,7.0,79,0.00,,,-99.99,,2013-04-19 14:42:00,
2013-04-19 10:52:00,60.0,53.0,-100.00,SSE,155,2.0,9.0,79,0.00,,,-99.99,,2013-04-19 14:52:00,
2013-04-19 11:02:00,61.0,53.0,-100.00,SSE,160,3.0,7.0,76,0.00,,,-99.99,,2013-04-19 15:02:00,
2013-04-19 11:12:00,63.0,53.0,-100.00,ENE,70,1.0,6.0,71,0.00,,,-99.99,,2013-04-19 15:12:00,
2013-04-19 11:21:00,63.0,53.0,-100.00,SW,225,1.0,6.0,69,0.00,,,-99.99,,2013-04-19 15:21:00,
2013-04-19 11:33:00,64.0,53.0,-100.00,SSE,160,2.0,7.0,69,0.00,,,-99.99,,2013-04-19 15:33:00,
2013-04-19 11:43:00,64.0,54.0,-100.00,ESE,110,2.0,6.0,69,0.00,,,-99.99,,2013-04-19 15:43:00,
2013-04-19 11:52:00,65.0,54.0,-100.00,SSE,165,3.0,8.0,67,0.00,,,-99.99,,2013-04-19 15:52:00,
2013-04-19 12:03:00,65.0,54.0,-100.00,East,90,3.0,12.0,66,0.00,,,-99.99,,2013-04-19 16:03:00,
2013-04-19 12:13:00,65.0,54.0,-100.00,North,-999,-999.0,-999.0,66,0.00,,,-99.99,,2013-04-19 16:13:00,
2013-04-19 12:23:00,65.0,53.0,-100.00,SSE,165,4.0,17.0,65,0.00,,,-99.99,,2013-04-19 16:23:00,
2013-04-19 12:32:00,67.0,54.0,-100.00,SSE,165,4.0,12.0,63,0.00,,,-99.99,,2013-04-19 16:32:00,
2013-04-19 12:42:00,69.0,54.0,-100.00,SSE,165,4.0,15.0,58,0.00,,,-99.99,,2013-04-19 16:42:00,
2013-04-19 12:52:00,68.0,54.0,-100.00,SSE,165,4.0,13.0,61,0.00,,,-99.99,,2013-04-19 16:52:00,
2013-04-19 13:02:00,67.0,54.0,-100.00,SSW,210,3.0,14.0,62,0.00,,,-99.99,,2013-04-19 17:02:00,
2013-04-19 13:12:00,68.0,54.0,-100.00,SSE,150,3.0,10.0,59,0.00,,,-99.99,,2013-04-19 17:12:00,
2013-04-19 13:21:00,69.0,54.0,-100.00,SSE,160,7.0,14.0,59,0.00,,,-99.99,,2013-04-19 17:21:00,
2013-04-19 13:33:00,69.0,54.0,-100.00,East,100,4.0,15.0,56,0.00,,,-99.99,,2013-04-19 17:33:00,
2013-04-19 13:42:00,70.0,54.0,-100.00,South,175,5.0,15.0,56,0.00,,,-99.99,,2013-04-19 17:42:00,
2013-04-19 13:52:00,70.0,54.0,-100.00,South,180,7.0,13.0,56,0.00,,,-99.99,,2013-04-19 17:52:00,
2013-04-19 14:02:00,70.0,54.0,-100.00,East,85,3.0,11.0,56,0.00,,,-99.99,,2013-04-19 18:02:00,
2013-04-19 14:13:00,69.0,54.0,-100.00,SSE,155,5.0,11.0,57,0.00,,,-99.99,,2013-04-19 18:13:00,
2013-04-19 14:23:00,70.0,54.0,-100.00,SSE,160,4.0,12.0,56,0.00,,,-99.99,,2013-04-19 18:23:00,
2013-04-19 14:33:00,71.0,54.0,-100.00,NNE,20,4.0,9.0,56,0.00,,,-99.99,,2013-04-19 18:33:00,
2013-04-19 14:43:00,71.0,54.0,-100.00,East,95,4.0,9.0,55,0.00,,,-99.99,,2013-04-19 18:43:00,
2013-04-19 14:52:00,71.0,55.0,-100.00,SE,130,6.0,13.0,55,0.00,,,-99.99,,2013-04-19 18:52:00,
2013-04-19 15:02:00,72.0,54.0,-100.00,East,80,2.0,10.0,53,0.00,,,-99.99,,2013-04-19 19:02:00,
2013-04-19 15:11:00,72.0,55.0,-100.00,SE,145,4.0,12.0,55,0.00,,,-99.99,,2013-04-19 19:11:00,
2013-04-19 15:21:00,71.0,55.0,-100.00,South,180,6.0,14.0,56,0.00,,,-99.99,,2013-04-19 19:21:00,
2013-04-19 15:32:00,71.0,55.0,-100.00,North,355,2.0,12.0,57,0.00,,,-99.99,,2013-04-19 19:32:00,
2013-04-19 15:42:00,72.0,55.0,-100.00,SSW,200,4.0,11.0,55,0.00,,,-99.99,,2013-04-19 19:42:00,
2013-04-19 15:52:00,71.0,55.0,-100.00,SSE,150,4.0,14.0,56,0.00,,,-99.99,,2013-04-19 19:52:00,
2013-04-19 16:02:00,71.0,55.0,-100.00,ESE,115,5.0,14.0,56,0.00,,,-99.99,,2013-04-19 20:02:00,
2013-04-19 16:11:00,70.0,55.0,-100.00,ESE,110,3.0,10.0,58,0.00,,,-99.99,,2013-04-19 20:11:00,
2013-04-19 16:22:00,70.0,55.0,-100.00,SSW,195,4.0,14.0,59,0.00,,,-99.99,,2013-04-19 20:22:00,
2013-04-19 16:32:00,70.0,56.0,-100.00,East,90,2.0,10.0,60,0.00,,,-99.99,,2013-04-19 20:32:00,
2013-04-19 16:42:00,70.0,56.0,-100.00,ENE,60,2.0,10.0,61,0.00,,,-99.99,,2013-04-19 20:42:00,
2013-04-19 16:51:00,70.0,56.0,-100.00,East,90,2.0,12.0,62,0.00,,,-99.99,,2013-04-19 20:51:00,
2013-04-19 17:01:00,69.0,56.0,-100.00,South,175,3.0,9.0,63,0.00,,,-99.99,,2013-04-19 21:01:00,
2013-04-19 17:11:00,70.0,56.0,-100.00,South,190,1.0,4.0,61,0.00,,,-99.99,,2013-04-19 21:11:00,
2013-04-19 17:21:00,70.0,57.0,-100.00,South,190,4.0,7.0,62,0.00,,,-99.99,,2013-04-19 21:21:00,
2013-04-19 17:32:00,71.0,57.0,-100.00,East,95,1.0,9.0,61,0.00,,,-99.99,,2013-04-19 21:32:00,
2013-04-19 17:42:00,71.0,57.0,-100.00,SSE,160,3.0,14.0,61,0.00,,,-99.99,,2013-04-19 21:42:00,
2013-04-19 17:52:00,71.0,56.0,-100.00,SE,130,3.0,13.0,59,0.00,,,-99.99,,2013-04-19 21:52:00,
2013-04-19 18:02:00,71.0,56.0,-100.00,SSE,160,3.0,7.0,59,0.00,,,-99.99,,2013-04-19 22:02:00,
2013-04-19 18:12:00,69.0,58.0,-100.00,South,175,6.0,12.0,67,0.00,,,-99.99,,2013-04-19 22:12:00,
2013-04-19 18:22:00,68.0,58.0,-100.00,South,185,4.0,12.0,68,0.00,,,-99.99,,2013-04-19 22:22:00,
2013-04-19 18:33:00,68.0,58.0,-100.00,South,170,6.0,12.0,71,0.00,,,-99.99,,2013-04-19 22:33:00,
2013-04-19 18:42:00,67.0,58.0,-100.00,SE,125,7.0,12.0,72,0.00,,,-99.99,,2013-04-19 22:42:00,
2013-04-19 18:52:00,67.0,58.0,-100.00,SSE,155,7.0,14.0,73,0.00,,,-99.99,,2013-04-19 22:52:00,
2013-04-19 19:03:00,67.0,58.0,-100.00,SSE,150,4.0,16.0,73,0.00,,,-99.99,,2013-04-19 23:03:00,
2013-04-19 19:11:00,67.0,58.0,-100.00,SSE,155,5.0,16.0,74,0.00,,,-99.99,,2013-04-19 23:11:00,
2013-04-19 19:22:00,66.0,58.0,-100.00,SSE,150,6.0,14.0,75,0.00,,,-99.99,,2013-04-19 23:22:00,
2013-04-19 19:32:00,66.0,58.0,-100.00,SSE,165,3.0,13.0,77,0.00,,,-99.99,,2013-04-19 23:32:00,
2013-04-19 19:42:00,65.0,58.0,-100.00,South,175,2.0,7.0,78,0.00,,,-99.99,,2013-04-19 23:42:00,
2013-04-19 19:52:00,65.0,59.0,-100.00,SSE,150,3.0,9.0,79,0.00,,,-99.99,,2013-04-19 23:52:00,
2013-04-19 20:02:00,65.0,59.0,-100.00,South,185,4.0,10.0,79,0.00,,,-99.99,,2013-04-20 00:02:00,
2013-04-19 20:12:00,65.0,59.0,-100.00,East,100,2.0,10.0,80,0.00,,,-99.99,,2013-04-20 00:12:00,
2013-04-19 20:22:00,65.0,59.0,-100.00,SE,130,2.0,6.0,80,0.00,,,-99.99,,2013-04-20 00:22:00,
2013-04-19 20:32:00,65.0,59.0,-100.00,SE,140,2.0,9.0,80,0.00,,,-99.99,,2013-04-20 00:32:00,
2013-04-19 20:42:00,65.0,59.0,-100.00,SE,140,4.0,6.0,80,0.00,,,-99.99,,2013-04-20 00:42:00,
2013-04-19 20:51:00,65.0,59.0,-100.00,South,185,2.0,9.0,80,0.00,,,-99.99,,2013-04-20 00:51:00,
2013-04-19 21:01:00,65.0,59.0,-100.00,ESE,105,2.0,4.0,81,0.00,,,-99.99,,2013-04-20 01:01:00,
2013-04-19 21:11:00,65.0,59.0,-100.00,SSE,155,4.0,7.0,81,0.00,,,-99.99,,2013-04-20 01:11:00,
2013-04-19 21:21:00,65.0,59.0,-100.00,SSE,150,4.0,10.0,81,0.00,,,-99.99,,2013-04-20 01:21:00,
2013-04-19 21:32:00,65.0,59.0,-100.00,South,170,3.0,9.0,81,0.00,,,-99.99,,2013-04-20 01:32:00,
2013-04-19 21:42:00,65.0,59.0,-100.00,SW,220,4.0,9.0,81,0.00,,,-99.99,,2013-04-20 01:42:00,
2013-04-19 21:52:00,65.0,59.0,-100.00,SSE,155,3.0,9.0,80,0.00,,,-99.99,,2013-04-20 01:52:00,
2013-04-19 22:02:00,65.0,59.0,-100.00,South,185,4.0,6.0,80,0.00,,,-99.99,,2013-04-20 02:02:00,
2013-04-19 22:11:00,65.0,58.0,-100.00,SSE,165,3.0,7.0,80,0.00,,,-99.99,,2013-04-20 02:11:00,
2013-04-19 22:21:00,65.0,58.0,-100.00,South,175,4.0,14.0,79,0.00,,,-99.99,,2013-04-20 02:21:00,
2013-04-19 22:32:00,65.0,58.0,-100.00,SE,145,4.0,11.0,79,0.00,,,-99.99,,2013-04-20 02:32:00,
2013-04-19 22:42:00,65.0,58.0,-100.00,South,185,7.0,13.0,80,0.10,,,-99.99,,2013-04-20 02:42:00,
2013-04-19 22:52:00,63.0,59.0,-100.00,ESE,115,4.0,11.0,85,0.00,,,-99.99,,2013-04-20 02:52:00,
2013-04-19 23:01:00,63.0,59.0,-100.00,SE,135,2.0,8.0,87,0.00,,,-99.99,,2013-04-20 03:01:00,
2013-04-19 23:11:00,63.0,59.0,-100.00,SSE,155,4.0,9.0,87,0.00,,,-99.99,,2013-04-20 03:11:00,
2013-04-19 23:21:00,63.0,59.0,-100.00,SE,130,2.0,7.0,87,0.03,,,-99.99,,2013-04-20 03:21:00,
2013-04-19 23:33:00,63.0,60.0,-100.00,South,180,1.0,10.0,88,0.01,,,-99.99,,2013-04-20 03:33:00,
2013-04-19 23:43:00,63.0,60.0,-100.00,SW,215,3.0,9.0,89,0.01,,,-99.99,,2013-04-20 03:43:00,
2013-04-19 23:52:00,62.0,60.0,-100.00,NNW,340,4.0,11.0,91,0.38,,,-99.99,,2013-04-20 03:52:00,